createdAt,value
2022-11-29T00:01:34.598Z,8.97
2022-11-29T00:04:02.733Z,9.33
2022-11-29T00:06:33.367Z,8.57
2022-11-29T00:09:04.452Z,8.20
2022-11-29T00:11:54.068Z,9.53
2022-11-29T00:14:22.280Z,9.07
2022-11-29T00:16:54.898Z,9.07
2022-11-29T00:19:22.326Z,9.43
2022-11-29T00:21:49.199Z,10.30
2022-11-29T00:24:16.417Z,9.00
2022-11-29T00:26:43.330Z,9.80
2022-11-29T00:29:12.619Z,9.90
2022-11-29T00:31:40.725Z,10.30
2022-11-29T00:34:09.737Z,9.30
2022-11-29T00:36:36.982Z,10.43
2022-11-29T00:39:05.194Z,8.27
2022-11-29T00:41:32.297Z,11.53
2022-11-29T00:43:59.396Z,10.50
2022-11-29T00:46:26.421Z,9.60
2022-11-29T00:48:53.411Z,9.77
2022-11-29T00:51:20.342Z,10.37
2022-11-29T00:53:47.341Z,10.77
2022-11-29T00:56:14.342Z,8.33
2022-11-29T00:58:43.621Z,10.43
2022-11-29T01:01:11.845Z,10.33
2022-11-29T01:03:39.304Z,10.43
2022-11-29T01:06:12.898Z,10.07
2022-11-29T01:08:40.023Z,10.03
2022-11-29T01:11:06.934Z,9.37
2022-11-29T01:13:35.091Z,7.47
2022-11-29T01:16:02.079Z,10.37
2022-11-29T01:18:30.628Z,8.87
2022-11-29T01:20:59.543Z,10.40
2022-11-29T01:23:27.445Z,7.10
2022-11-29T01:26:18.936Z,9.43
2022-11-29T01:28:47.455Z,8.40
2022-11-29T01:31:17.794Z,8.73
2022-11-29T01:33:44.776Z,10.10
2022-11-29T01:36:13.743Z,7.63
2022-11-29T01:38:42.489Z,9.93
2022-11-29T01:41:13.711Z,11.17
2022-11-29T01:44:01.596Z,9.07
2022-11-29T01:46:31.871Z,9.53
2022-11-29T01:49:28.007Z,9.80
2022-11-29T01:52:30.109Z,9.80
2022-11-29T01:55:00.697Z,10.17
2022-11-29T01:57:28.510Z,11.07
2022-11-29T02:00:01.110Z,9.43
2022-11-29T02:02:50.868Z,10.20
2022-11-29T02:05:19.677Z,11.07
2022-11-29T02:07:51.158Z,10.47
2022-11-29T02:10:18.626Z,9.93
2022-11-29T02:13:09.040Z,10.30
2022-11-29T02:15:42.979Z,8.83
2022-11-29T02:18:27.434Z,10.50
2022-11-29T02:21:19.988Z,10.60
2022-11-29T02:24:24.569Z,10.37
2022-11-29T02:27:13.366Z,11.47
2022-11-29T02:29:58.749Z,10.63
2022-11-29T02:32:50.299Z,9.97
2022-11-29T02:35:19.759Z,10.67
2022-11-29T02:38:11.682Z,10.63
2022-11-29T02:40:38.653Z,11.50
2022-11-29T02:43:11.611Z,11.23
2022-11-29T02:45:58.729Z,11.23
2022-11-29T02:48:44.271Z,9.55
2022-11-29T02:51:42.023Z,10.57
2022-11-29T02:54:24.130Z,11.10
2022-11-29T02:57:04.501Z,10.47
2022-11-29T02:59:43.325Z,10.43
2022-11-29T03:02:25.455Z,10.97
2022-11-29T03:05:14.005Z,11.53
2022-11-29T03:08:13.366Z,11.10
2022-11-29T03:11:05.333Z,9.37
2022-11-29T03:13:50.557Z,10.93
2022-11-29T03:16:41.325Z,10.43
2022-11-29T03:19:39.135Z,10.57
2022-11-29T03:22:34.072Z,8.67
2022-11-29T03:25:08.124Z,11.23
2022-11-29T03:27:43.750Z,11.67
2022-11-29T03:30:14.052Z,12.17
2022-11-29T03:32:59.119Z,10.67
2022-11-29T03:35:37.777Z,11.73
2022-11-29T03:38:27.492Z,10.03
2022-11-29T03:41:13.115Z,11.77
2022-11-29T03:44:09.676Z,10.10
2022-11-29T03:46:56.851Z,11.63
2022-11-29T03:49:30.599Z,12.15
2022-11-29T03:52:17.335Z,11.67
2022-11-29T03:55:05.965Z,11.48
2022-11-29T03:58:11.369Z,10.90
2022-11-29T04:01:00.452Z,10.60
2022-11-29T04:04:06.134Z,10.50
2022-11-29T04:07:00.979Z,11.23
2022-11-29T04:09:39.783Z,11.27
2022-11-29T04:12:06.619Z,14.27
2022-11-29T04:15:15.225Z,11.80
2022-11-29T04:18:07.133Z,11.07
2022-11-29T04:20:53.704Z,11.83
2022-11-29T04:23:45.968Z,11.38
2022-11-29T04:26:35.175Z,11.13
2022-11-29T04:29:23.803Z,9.67
2022-11-29T04:32:03.442Z,10.63
2022-11-29T04:34:45.520Z,10.27
2022-11-29T04:37:39.979Z,11.23
2022-11-29T04:40:44.196Z,9.83
2022-11-29T04:43:35.115Z,10.43
2022-11-29T04:46:34.192Z,11.43
2022-11-29T04:49:23.217Z,9.40
2022-11-29T04:52:13.964Z,9.27
2022-11-29T04:54:44.025Z,12.10
2022-11-29T04:57:32.680Z,11.60
2022-11-29T05:00:18.686Z,9.93
2022-11-29T05:02:55.031Z,10.70
2022-11-29T05:05:51.137Z,11.60
2022-11-29T05:08:21.305Z,12.07
2022-11-29T05:11:26.996Z,12.13
2022-11-29T05:14:08.971Z,12.00
2022-11-29T05:17:04.616Z,11.37
2022-11-29T05:19:56.548Z,12.00
2022-11-29T05:22:38.329Z,11.20
2022-11-29T05:25:28.803Z,8.47
2022-11-29T05:28:10.424Z,10.70
2022-11-29T05:31:14.549Z,10.33
2022-11-29T05:34:13.559Z,11.27
2022-11-29T05:36:55.444Z,11.70
2022-11-29T05:39:50.804Z,10.47
2022-11-29T05:42:34.938Z,11.13
2022-11-29T05:45:17.168Z,10.67
2022-11-29T05:47:56.272Z,9.13
2022-11-29T05:50:30.896Z,11.43
2022-11-29T05:53:26.043Z,11.50
2022-11-29T05:56:25.401Z,9.43
2022-11-29T05:59:05.657Z,10.70
2022-11-29T06:01:46.532Z,10.63
2022-11-29T06:04:23.089Z,12.17
2022-11-29T06:06:59.956Z,10.63
2022-11-29T06:12:14.898Z,11.27
2022-11-29T06:15:03.833Z,10.83
2022-11-29T06:18:02.190Z,10.93
2022-11-29T06:20:57.242Z,10.27
2022-11-29T06:23:44.463Z,7.57
2022-11-29T06:29:02.542Z,10.02
2022-11-29T06:31:46.596Z,9.27
2022-11-29T06:34:37.880Z,10.50
2022-11-29T06:37:17.374Z,10.03
2022-11-29T06:39:44.568Z,11.27
2022-11-29T06:42:11.457Z,11.93
2022-11-29T06:44:38.591Z,12.80
2022-11-29T06:47:09.402Z,11.63
2022-11-29T06:49:41.916Z,13.43
2022-11-29T06:52:35.484Z,14.90
2022-11-29T06:55:26.254Z,13.93
2022-11-29T06:58:08.074Z,13.90
2022-11-29T07:00:38.610Z,13.70
2022-11-29T07:03:28.845Z,14.33
2022-11-29T07:05:57.215Z,15.97
2022-11-29T07:08:25.454Z,13.30
2022-11-29T07:10:55.703Z,14.70
2022-11-29T07:13:23.296Z,12.07
2022-11-29T07:16:02.375Z,12.87
2022-11-29T07:18:43.491Z,12.33
2022-11-29T07:21:47.131Z,13.37
2022-11-29T07:24:16.616Z,13.23
2022-11-29T07:27:06.354Z,14.20
2022-11-29T07:30:02.704Z,14.00
2022-11-29T07:33:00.302Z,12.55
2022-11-29T07:36:00.538Z,13.73
2022-11-29T07:38:53.901Z,12.37
2022-11-29T07:41:56.140Z,14.93
2022-11-29T07:44:45.495Z,15.20
2022-11-29T07:47:13.442Z,15.67
2022-11-29T07:49:40.513Z,15.97
2022-11-29T07:52:10.013Z,12.10
2022-11-29T07:54:36.913Z,15.57
2022-11-29T07:57:03.899Z,16.73
2022-11-29T07:59:30.829Z,15.97
2022-11-29T08:01:58.952Z,14.50
2022-11-29T08:04:25.966Z,15.40
2022-11-29T08:06:52.906Z,15.97
2022-11-29T08:09:20.117Z,16.10
2022-11-29T08:11:48.945Z,16.57
2022-11-29T08:14:15.885Z,16.80
2022-11-29T08:16:42.917Z,15.77
2022-11-29T08:19:09.862Z,15.27
2022-11-29T08:21:36.737Z,15.37
2022-11-29T08:24:03.739Z,14.20
2022-11-29T08:26:31.883Z,15.13
2022-11-29T08:28:59.021Z,11.80
2022-11-29T08:31:26.026Z,15.33
2022-11-29T08:33:53.017Z,15.10
2022-11-29T08:36:20.872Z,15.47
2022-11-29T08:38:48.116Z,15.40
2022-11-29T08:41:16.927Z,16.10
2022-11-29T08:43:44.410Z,12.80
2022-11-29T08:46:17.977Z,16.60
2022-11-29T08:48:46.582Z,16.13
2022-11-29T08:51:13.844Z,16.23
2022-11-29T08:53:46.139Z,16.37
2022-11-29T08:57:04.457Z,15.97
2022-11-29T08:59:05.753Z,14.77
2022-11-29T09:01:32.947Z,15.57
2022-11-29T09:03:59.944Z,16.60
2022-11-29T09:06:28.849Z,15.57
2022-11-29T09:08:56.889Z,16.57
2022-11-29T09:11:26.016Z,15.33
2022-11-29T09:13:56.006Z,14.83
2022-11-29T09:16:25.905Z,16.23
2022-11-29T09:18:55.871Z,15.03
2022-11-29T09:21:24.788Z,15.33
2022-11-29T09:23:58.822Z,15.30
2022-11-29T09:26:31.933Z,16.67
2022-11-29T09:29:01.396Z,16.17
2022-11-29T09:31:30.441Z,15.93
2022-11-29T09:33:57.828Z,15.43
2022-11-29T09:36:28.490Z,15.07
2022-11-29T09:38:57.644Z,15.30
2022-11-29T09:41:42.996Z,13.97
2022-11-29T09:44:22.656Z,9.10
2022-11-29T09:47:02.968Z,15.17
2022-11-29T09:49:39.032Z,13.93
2022-11-29T09:52:14.710Z,16.02
2022-11-29T09:54:53.521Z,15.23
2022-11-29T09:57:21.969Z,14.10
2022-11-29T09:59:54.733Z,14.43
2022-11-29T10:02:38.298Z,13.37
2022-11-29T10:05:24.292Z,13.23
2022-11-29T10:07:55.511Z,14.23
2022-11-29T10:10:32.406Z,12.17
2022-11-29T10:13:16.059Z,12.65
2022-11-29T10:15:50.659Z,13.27
2022-11-29T10:18:44.404Z,13.30
2022-11-29T10:21:17.408Z,13.40
2022-11-29T10:23:56.514Z,10.47
2022-11-29T10:26:25.877Z,12.27
2022-11-29T10:28:57.726Z,11.07
2022-11-29T10:31:29.395Z,13.17
2022-11-29T10:34:00.020Z,14.23
2022-11-29T10:36:33.437Z,12.83
2022-11-29T10:39:13.007Z,14.17
2022-11-29T10:41:41.215Z,12.27
2022-11-29T10:44:13.420Z,13.07
2022-11-29T10:46:41.283Z,13.73
2022-11-29T10:49:17.526Z,14.67
2022-11-29T10:51:46.038Z,13.77
2022-11-29T10:54:31.759Z,14.57
2022-11-29T10:57:00.753Z,13.20
2022-11-29T10:59:29.897Z,12.37
2022-11-29T11:01:58.012Z,13.43
2022-11-29T11:04:27.143Z,11.77
2022-11-29T11:07:01.307Z,12.47
2022-11-29T11:09:34.377Z,12.60
2022-11-29T11:12:08.591Z,12.83
2022-11-29T11:14:38.732Z,12.83
2022-11-29T11:17:22.633Z,11.67
2022-11-29T11:20:05.858Z,11.83
2022-11-29T11:22:34.065Z,11.23
2022-11-29T11:25:07.711Z,11.37
2022-11-29T11:27:41.995Z,13.37
2022-11-29T11:30:22.999Z,13.07
2022-11-29T11:33:20.405Z,12.73
2022-11-29T11:36:06.437Z,13.65
2022-11-29T11:38:38.662Z,13.80
2022-11-29T11:41:12.878Z,13.63
2022-11-29T11:43:40.081Z,12.93
2022-11-29T11:46:08.302Z,13.70
2022-11-29T11:48:35.884Z,13.63
2022-11-29T11:51:03.271Z,13.17
2022-11-29T11:53:36.738Z,14.43
2022-11-29T11:56:10.503Z,14.30
2022-11-29T11:58:43.646Z,14.07
2022-11-29T12:01:13.475Z,13.93
2022-11-29T12:04:20.497Z,14.43
2022-11-29T12:06:59.430Z,14.37
2022-11-29T12:09:48.025Z,14.47
2022-11-29T12:12:26.188Z,12.73
2022-11-29T12:15:07.118Z,11.73
2022-11-29T12:17:41.708Z,13.67
2022-11-29T12:20:42.802Z,13.27
2022-11-29T12:23:12.817Z,13.33
2022-11-29T12:25:44.963Z,13.23
2022-11-29T12:28:20.586Z,13.97
2022-11-29T12:30:59.916Z,13.55
2022-11-29T12:33:32.831Z,13.10
2022-11-29T12:36:21.148Z,13.77
2022-11-29T12:39:26.993Z,14.23
2022-11-29T12:42:12.562Z,13.13
2022-11-29T12:44:43.651Z,12.23
2022-11-29T12:47:39.627Z,14.20
2022-11-29T12:50:28.334Z,12.97
2022-11-29T12:52:55.186Z,14.43
2022-11-29T12:55:32.932Z,14.60
2022-11-29T12:58:14.067Z,14.17
2022-11-29T13:01:23.146Z,14.23
2022-11-29T13:04:08.581Z,14.63
2022-11-29T13:06:38.361Z,14.93
2022-11-29T13:09:18.685Z,14.83
2022-11-29T13:12:16.971Z,16.73
2022-11-29T13:14:54.314Z,14.07
2022-11-29T13:17:56.708Z,13.77
2022-11-29T13:20:33.774Z,13.00
2022-11-29T13:23:03.628Z,11.00
2022-11-29T13:25:42.019Z,12.33
2022-11-29T13:28:24.096Z,10.63
2022-11-29T13:30:52.845Z,12.47
2022-11-29T13:33:38.636Z,10.27
2022-11-29T13:36:44.470Z,9.47
2022-11-29T13:39:36.968Z,11.03
2022-11-29T13:42:03.862Z,12.53
2022-11-29T13:44:44.567Z,13.60
2022-11-29T13:47:19.153Z,11.50
2022-11-29T13:49:50.844Z,12.37
2022-11-29T13:52:26.722Z,13.03
2022-11-29T13:55:12.046Z,13.77
2022-11-29T13:58:18.458Z,11.25
2022-11-29T14:00:45.655Z,12.37
2022-11-29T14:03:18.886Z,14.43
2022-11-29T14:05:49.146Z,8.50
2022-11-29T14:08:25.645Z,13.00
2022-11-29T14:10:56.982Z,9.20
2022-11-29T14:13:46.391Z,12.73
2022-11-29T14:16:21.033Z,12.65
2022-11-29T14:19:03.745Z,12.97
2022-11-29T14:21:58.721Z,12.47
2022-11-29T14:24:38.121Z,13.17
2022-11-29T14:27:12.615Z,11.50
2022-11-29T14:29:53.677Z,12.23
2022-11-29T14:32:23.853Z,15.00
2022-11-29T14:34:56.762Z,14.13
2022-11-29T14:37:55.806Z,15.47
2022-11-29T14:40:34.819Z,13.83
2022-11-29T14:43:05.395Z,15.50
2022-11-29T14:45:34.682Z,12.87
2022-11-29T14:48:02.890Z,12.13
2022-11-29T14:50:33.379Z,13.33
2022-11-29T14:53:01.291Z,13.00
2022-11-29T14:55:32.375Z,13.00
2022-11-29T14:58:06.025Z,13.83
2022-11-29T15:00:32.989Z,11.73
2022-11-29T15:03:12.957Z,12.60
2022-11-29T15:05:44.933Z,9.60
2022-11-29T15:08:28.524Z,11.20
2022-11-29T15:11:04.686Z,10.33
2022-11-29T15:13:35.650Z,12.35
2022-11-29T15:16:21.081Z,10.27
2022-11-29T15:19:03.317Z,10.83
2022-11-29T15:21:51.334Z,13.20
2022-11-29T15:24:19.115Z,10.73
2022-11-29T15:26:56.977Z,12.80
2022-11-29T15:29:24.297Z,12.17
2022-11-29T15:31:57.815Z,13.43
2022-11-29T15:34:33.068Z,13.17
2022-11-29T15:37:00.674Z,13.57
2022-11-29T15:39:36.741Z,12.80
2022-11-29T15:42:11.737Z,11.98
2022-11-29T15:44:45.962Z,12.53
2022-11-29T15:47:23.810Z,14.57
2022-11-29T15:49:52.156Z,11.50
2022-11-29T15:52:33.942Z,12.47
2022-11-29T15:55:06.533Z,12.77
2022-11-29T15:57:41.197Z,10.10
2022-11-29T16:00:16.859Z,11.17
2022-11-29T16:02:56.773Z,11.73
2022-11-29T16:05:37.461Z,12.07
2022-11-29T16:08:08.560Z,7.73
2022-11-29T16:10:49.491Z,13.00
2022-11-29T16:13:25.673Z,12.83
2022-11-29T16:16:07.607Z,12.00
2022-11-29T16:18:35.283Z,10.17
2022-11-29T16:21:06.935Z,13.23
2022-11-29T16:23:41.503Z,12.83
2022-11-29T16:26:11.337Z,8.17
2022-11-29T16:28:44.098Z,12.97
2022-11-29T16:31:19.557Z,12.57
2022-11-29T16:33:49.265Z,11.03
2022-11-29T16:36:20.889Z,12.40
2022-11-29T16:38:51.365Z,12.43
2022-11-29T16:41:21.405Z,12.80
2022-11-29T16:43:53.918Z,13.40
2022-11-29T16:46:21.021Z,13.73
2022-11-29T16:48:52.724Z,10.33
2022-11-29T16:51:33.440Z,13.03
2022-11-29T16:54:26.380Z,11.67
2022-11-29T16:56:55.905Z,12.53
2022-11-29T16:59:27.476Z,12.77
2022-11-29T17:01:56.891Z,12.90
2022-11-29T17:04:30.065Z,12.27
2022-11-29T17:06:58.229Z,13.10
2022-11-29T17:09:54.375Z,12.87
2022-11-29T17:12:48.372Z,13.67
2022-11-29T17:18:15.732Z,13.57
2022-11-29T17:20:42.659Z,13.70
2022-11-29T17:23:37.951Z,14.20
2022-11-29T17:26:05.398Z,13.53
2022-11-29T17:34:46.006Z,10.53
2022-11-29T17:37:13.174Z,12.90
2022-11-29T17:39:44.796Z,13.13
2022-11-29T17:45:11.039Z,12.80
2022-11-29T17:47:38.015Z,13.27
2022-11-29T17:50:36.242Z,11.20
2022-11-29T17:53:28.756Z,12.87
2022-11-29T17:56:28.975Z,13.47
2022-11-29T17:58:59.868Z,12.70
2022-11-29T18:01:52.739Z,13.13
2022-11-29T18:04:44.838Z,12.10
2022-11-29T18:07:15.976Z,12.67
2022-11-29T18:10:09.298Z,12.97
2022-11-29T18:12:41.447Z,12.83
2022-11-29T18:15:33.586Z,13.07
2022-11-29T18:18:04.499Z,12.83
2022-11-29T18:21:07.374Z,12.57
2022-11-29T18:23:43.623Z,13.10
2022-11-29T18:26:21.771Z,13.00
2022-11-29T18:28:49.612Z,12.07
2022-11-29T18:31:24.371Z,11.77
2022-11-29T18:34:17.052Z,12.27
2022-11-29T18:37:17.628Z,11.97
2022-11-29T18:40:45.610Z,12.03
2022-11-29T18:49:49.634Z,11.40
2022-11-29T18:52:16.735Z,11.47
2022-11-29T18:57:48.452Z,11.30
2022-11-29T19:13:10.671Z,11.90
2022-11-29T19:18:39.249Z,10.73
2022-11-29T19:21:16.275Z,11.23
2022-11-29T19:24:19.763Z,10.60
2022-11-29T19:26:49.216Z,11.00
2022-11-29T19:29:41.242Z,10.87
2022-11-29T19:35:24.862Z,12.03
2022-11-29T19:38:16.700Z,12.70
2022-11-29T19:44:11.991Z,11.20
2022-11-29T19:46:43.960Z,10.60
2022-11-29T19:49:17.161Z,11.85
2022-11-29T19:51:44.188Z,11.40
2022-11-29T19:54:12.849Z,12.73
2022-11-29T19:56:42.063Z,12.30
2022-11-29T19:59:11.013Z,11.57
2022-11-29T20:05:20.568Z,11.70
2022-11-29T20:08:19.841Z,11.30
2022-11-29T20:10:48.491Z,11.60
2022-11-29T20:13:48.598Z,10.77
2022-11-29T20:16:20.300Z,12.13
2022-11-29T20:18:56.180Z,11.00
2022-11-29T20:21:31.165Z,11.53
2022-11-29T20:24:03.415Z,12.70
2022-11-29T20:26:33.063Z,11.43
2022-11-29T20:29:00.314Z,12.37
2022-11-29T20:31:27.475Z,12.47
2022-11-29T20:33:57.463Z,12.33
2022-11-29T20:36:43.154Z,12.33
2022-11-29T20:39:42.477Z,12.93
2022-11-29T20:42:36.758Z,11.30
2022-11-29T20:45:10.494Z,10.73
2022-11-29T20:48:03.026Z,10.70
2022-11-29T20:50:32.227Z,11.50
2022-11-29T20:53:26.904Z,10.77
2022-11-29T20:55:53.852Z,11.10
2022-11-29T20:58:20.907Z,11.63
2022-11-29T21:00:48.194Z,12.20
2022-11-29T21:03:40.662Z,12.20
2022-11-29T21:06:07.609Z,11.00
2022-11-29T21:08:36.004Z,12.07
2022-11-29T21:11:09.934Z,12.23
2022-11-29T21:13:37.657Z,12.17
2022-11-29T21:16:04.951Z,11.57
2022-11-29T21:18:32.656Z,12.33
2022-11-29T21:21:17.937Z,12.83
2022-11-29T21:24:05.352Z,11.77
2022-11-29T21:26:50.502Z,12.33
2022-11-29T21:29:18.783Z,12.53
2022-11-29T21:31:47.155Z,13.33
2022-11-29T21:34:14.363Z,12.27
2022-11-29T21:36:41.868Z,11.83
2022-11-29T21:39:13.094Z,11.73
2022-11-29T21:41:39.996Z,10.70
2022-11-29T21:44:07.953Z,11.53
2022-11-29T21:46:35.559Z,12.60
2022-11-29T21:49:02.536Z,12.70
2022-11-29T21:51:29.536Z,12.00
2022-11-29T21:53:56.434Z,12.27
2022-11-29T21:56:23.452Z,12.43
2022-11-29T21:58:50.577Z,13.50
2022-11-29T22:01:20.185Z,11.73
2022-11-29T22:03:47.646Z,11.73
2022-11-29T22:06:20.469Z,10.97
2022-11-29T22:08:48.425Z,11.57
2022-11-29T22:11:30.679Z,12.17
2022-11-29T22:14:14.314Z,12.43
2022-11-29T22:16:44.969Z,11.43
2022-11-29T22:19:13.872Z,11.80
2022-11-29T22:21:42.259Z,11.10
2022-11-29T22:24:10.462Z,11.70
2022-11-29T22:26:37.815Z,11.60
2022-11-29T22:29:05.718Z,12.20
2022-11-29T22:31:33.382Z,13.10
2022-11-29T22:34:00.464Z,11.87
2022-11-29T22:36:27.621Z,11.07
2022-11-29T22:38:54.589Z,11.57
2022-11-29T22:41:21.488Z,12.33
2022-11-29T22:43:48.432Z,11.00
2022-11-29T22:46:19.603Z,12.00
2022-11-29T22:48:49.150Z,11.20
2022-11-29T22:51:19.128Z,10.80
2022-11-29T22:53:51.481Z,12.13
2022-11-29T22:56:19.041Z,12.63
2022-11-29T22:58:46.591Z,12.07
2022-11-29T23:01:19.066Z,11.50
2022-11-29T23:03:48.524Z,12.43
2022-11-29T23:06:18.035Z,12.37
2022-11-29T23:08:46.375Z,11.90
2022-11-29T23:11:16.006Z,12.53
2022-11-29T23:13:44.025Z,11.80
2022-11-29T23:16:14.472Z,11.97
2022-11-29T23:18:45.852Z,12.77
2022-11-29T23:21:22.210Z,11.63
2022-11-29T23:23:55.854Z,11.02
2022-11-29T23:26:26.554Z,11.90
2022-11-29T23:28:54.555Z,12.67
2022-11-29T23:31:23.130Z,11.33
2022-11-29T23:33:50.932Z,13.97
2022-11-29T23:36:18.324Z,12.03
2022-11-29T23:38:45.332Z,12.37
2022-11-29T23:41:12.806Z,12.63
2022-11-29T23:43:41.197Z,12.90
2022-11-29T23:46:19.278Z,13.27
2022-11-29T23:48:47.003Z,11.90
2022-11-29T23:51:14.346Z,12.77
2022-11-29T23:53:41.961Z,12.63
2022-11-29T23:56:13.455Z,12.47
2022-11-29T23:58:40.609Z,12.33
